createdAt,value
2023-04-21T00:02:05.679Z,14.88
2023-04-21T00:05:10.571Z,14.40
2023-04-21T00:08:16.157Z,14.88
2023-04-21T00:11:20.680Z,15.35
2023-04-21T00:14:25.037Z,15.38
2023-04-21T00:17:29.477Z,15.95
2023-04-21T00:20:33.902Z,14.95
2023-04-21T00:23:38.222Z,15.43
2023-04-21T00:26:42.376Z,15.02
2023-04-21T00:29:46.465Z,15.80
2023-04-21T00:32:51.059Z,13.80
2023-04-21T00:35:56.932Z,14.35
2023-04-21T00:39:01.519Z,14.07
2023-04-21T00:42:05.981Z,13.85
2023-04-21T00:45:10.987Z,13.10
2023-04-21T00:48:15.345Z,13.82
2023-04-21T00:51:20.208Z,14.38
2023-04-21T00:54:26.095Z,13.95
2023-04-21T00:57:32.545Z,12.82
2023-04-21T01:00:37.991Z,13.40
2023-04-21T01:03:42.528Z,12.13
2023-04-21T01:06:46.968Z,13.73
2023-04-21T01:09:51.570Z,12.32
2023-04-21T01:12:55.975Z,12.77
2023-04-21T01:16:00.159Z,12.57
2023-04-21T01:19:05.994Z,12.50
2023-04-21T01:22:12.195Z,12.80
2023-04-21T01:25:18.532Z,12.88
2023-04-21T01:28:24.315Z,12.75
2023-04-21T01:31:28.803Z,11.68
2023-04-21T01:34:33.478Z,12.50
2023-04-21T01:37:38.293Z,12.43
2023-04-21T01:40:43.108Z,11.07
2023-04-21T01:43:47.191Z,11.73
2023-04-21T01:46:51.981Z,11.57
2023-04-21T01:49:56.345Z,10.90
2023-04-21T01:53:00.898Z,11.93
2023-04-21T01:56:06.424Z,11.25
2023-04-21T01:59:10.771Z,11.05
2023-04-21T02:02:15.171Z,12.07
2023-04-21T02:05:19.927Z,11.48
2023-04-21T02:08:24.235Z,11.15
2023-04-21T02:11:29.174Z,11.77
2023-04-21T02:14:33.600Z,11.23
2023-04-21T02:20:42.110Z,12.00
2023-04-21T02:23:46.468Z,11.18
2023-04-21T02:26:50.846Z,11.18
2023-04-21T02:29:55.018Z,10.55
2023-04-21T02:32:59.431Z,11.77
2023-04-21T02:36:04.522Z,11.45
2023-04-21T02:39:08.945Z,10.80
2023-04-21T02:42:13.316Z,11.38
2023-04-21T02:45:17.848Z,10.23
2023-04-21T02:48:24.755Z,11.02
2023-04-21T02:51:28.901Z,10.15
2023-04-21T02:54:33.333Z,10.95
2023-04-21T02:57:37.947Z,9.98
2023-04-21T03:00:42.457Z,10.52
2023-04-21T03:03:47.053Z,10.73
2023-04-21T03:06:52.724Z,10.57
2023-04-21T03:09:57.191Z,10.07
2023-04-21T03:13:01.514Z,10.82
2023-04-21T03:16:06.333Z,9.75
2023-04-21T03:19:11.098Z,10.02
2023-04-21T03:22:15.381Z,10.70
2023-04-21T03:25:19.600Z,11.45
2023-04-21T03:28:24.020Z,10.35
2023-04-21T03:31:28.462Z,10.95
2023-04-21T03:34:32.900Z,11.13
2023-04-21T03:37:37.216Z,10.38
2023-04-21T03:40:41.289Z,11.40
2023-04-21T03:43:45.719Z,11.70
2023-04-21T03:46:54.322Z,10.98
2023-04-21T03:49:58.946Z,11.25
2023-04-21T03:53:03.125Z,10.25
2023-04-21T03:56:08.266Z,10.38
2023-04-21T03:59:12.907Z,10.18
2023-04-21T04:02:17.037Z,10.70
2023-04-21T04:05:21.616Z,11.43
2023-04-21T04:08:26.331Z,10.73
2023-04-21T04:11:33.768Z,10.38
2023-04-21T04:14:38.125Z,9.90
2023-04-21T04:17:42.928Z,10.77
2023-04-21T04:20:47.442Z,10.48
2023-04-21T04:23:52.420Z,11.13
2023-04-21T04:26:58.229Z,10.90
2023-04-21T04:30:03.272Z,11.02
2023-04-21T04:33:09.149Z,10.75
2023-04-21T04:36:13.611Z,10.85
2023-04-21T04:39:18.196Z,11.43
2023-04-21T04:42:22.678Z,10.68
2023-04-21T04:45:28.554Z,10.93
2023-04-21T04:48:32.956Z,10.20
2023-04-21T04:51:37.302Z,10.73
2023-04-21T04:54:41.630Z,11.07
2023-04-21T04:57:46.475Z,10.45
2023-04-21T05:00:51.264Z,11.43
2023-04-21T05:03:56.992Z,10.80
2023-04-21T05:07:01.761Z,10.38
2023-04-21T05:10:06.894Z,9.95
2023-04-21T05:13:10.971Z,10.55
2023-04-21T05:16:15.293Z,10.25
2023-04-21T05:19:19.577Z,10.05
2023-04-21T05:22:24.051Z,8.70
2023-04-21T05:25:28.765Z,9.40
2023-04-21T05:28:33.244Z,8.88
2023-04-21T05:31:39.100Z,8.13
2023-04-21T05:34:43.534Z,8.13
2023-04-21T05:37:47.682Z,8.20
2023-04-21T05:40:56.150Z,9.48
2023-04-21T05:44:00.755Z,8.88
2023-04-21T05:47:06.367Z,7.75
2023-04-21T05:50:11.400Z,8.00
2023-04-21T05:53:40.746Z,8.43
2023-04-21T05:56:48.506Z,7.85
2023-04-21T05:59:52.981Z,7.82
2023-04-21T06:02:57.711Z,7.95
2023-04-21T06:06:04.878Z,7.93
2023-04-21T06:09:09.302Z,8.23
2023-04-21T06:12:13.983Z,7.20
2023-04-21T06:15:18.406Z,7.05
2023-04-21T06:18:24.147Z,7.38
2023-04-21T06:21:28.575Z,7.28
2023-04-21T06:24:33.586Z,7.03
2023-04-21T06:27:37.790Z,7.35
2023-04-21T06:30:42.024Z,7.20
2023-04-21T06:33:46.260Z,7.32
2023-04-21T06:36:50.564Z,6.90
2023-04-21T06:39:54.887Z,7.82
2023-04-21T06:42:59.040Z,7.05
2023-04-21T06:46:03.509Z,6.97
2023-04-21T06:49:08.778Z,7.05
2023-04-21T06:52:13.297Z,6.68
2023-04-21T06:55:17.838Z,7.38
2023-04-21T06:58:22.150Z,7.05
2023-04-21T07:01:26.449Z,6.82
2023-04-21T07:04:32.324Z,6.97
2023-04-21T07:07:36.802Z,7.30
2023-04-21T07:10:41.548Z,7.13
2023-04-21T07:13:46.266Z,6.72
2023-04-21T07:16:50.538Z,6.60
2023-04-21T07:19:54.750Z,6.65
2023-04-21T07:22:59.315Z,6.47
2023-04-21T07:26:03.796Z,6.72
2023-04-21T07:29:08.501Z,6.95
2023-04-21T07:32:12.957Z,6.68
2023-04-21T07:35:17.670Z,7.43
2023-04-21T07:38:22.959Z,6.53
2023-04-21T07:41:27.996Z,6.20
2023-04-21T07:44:32.638Z,6.90
2023-04-21T07:47:37.226Z,7.47
2023-04-21T07:50:42.568Z,6.97
2023-04-21T07:53:47.499Z,6.25
2023-04-21T07:56:51.835Z,6.70
2023-04-21T07:59:56.400Z,6.70
2023-04-21T08:03:00.874Z,7.18
2023-04-21T08:06:05.898Z,6.22
2023-04-21T08:09:10.299Z,6.45
2023-04-21T08:12:14.697Z,7.40
2023-04-21T08:15:19.269Z,6.75
2023-04-21T08:18:23.663Z,6.93
2023-04-21T08:21:30.813Z,7.25
2023-04-21T08:24:35.563Z,7.30
2023-04-21T08:27:40.117Z,6.63
2023-04-21T08:30:44.581Z,7.07
2023-04-21T08:34:00.477Z,7.10
2023-04-21T08:37:06.798Z,7.13
2023-04-21T08:46:20.349Z,7.13
2023-04-21T08:49:28.675Z,7.07
2023-04-21T08:52:33.688Z,6.72
2023-04-21T08:55:38.796Z,6.60
2023-04-21T08:58:43.332Z,6.82
2023-04-21T09:02:17.228Z,6.90
2023-04-21T09:05:30.799Z,7.07
2023-04-21T09:08:39.821Z,6.95
2023-04-21T09:11:44.497Z,6.78
2023-04-21T09:14:49.314Z,7.53
2023-04-21T09:17:57.239Z,7.45
2023-04-21T09:21:15.931Z,6.43
2023-04-21T09:24:20.760Z,6.82
2023-04-21T09:27:25.214Z,7.68
2023-04-21T09:30:29.522Z,6.50
2023-04-21T09:33:42.640Z,7.30
2023-04-21T09:37:05.321Z,6.65
2023-04-21T09:40:15.067Z,6.75
2023-04-21T09:43:19.334Z,7.47
2023-04-21T09:46:24.758Z,6.85
2023-04-21T09:49:34.334Z,7.03
2023-04-21T09:52:39.874Z,7.50
2023-04-21T09:55:49.307Z,6.50
2023-04-21T09:58:57.651Z,6.78
2023-04-21T10:02:08.310Z,6.72
2023-04-21T10:05:13.174Z,7.65
2023-04-21T10:08:18.883Z,6.45
2023-04-21T10:11:24.326Z,6.28
2023-04-21T10:14:28.801Z,6.55
2023-04-21T10:17:38.215Z,7.00
2023-04-21T10:20:58.036Z,6.82
2023-04-21T10:24:06.719Z,6.88
2023-04-21T10:27:36.109Z,6.00
2023-04-21T10:30:41.161Z,6.10
2023-04-21T10:34:07.771Z,6.88
2023-04-21T10:37:17.188Z,6.70
2023-04-21T10:40:42.990Z,6.10
2023-04-21T10:43:51.512Z,5.97
2023-04-21T10:46:56.482Z,6.43
2023-04-21T10:50:16.158Z,6.28
2023-04-21T10:53:25.813Z,6.35
2023-04-21T10:56:30.665Z,7.10
2023-04-21T10:59:36.369Z,6.40
2023-04-21T11:02:43.221Z,6.75
2023-04-21T11:05:49.264Z,6.13
2023-04-21T11:08:57.911Z,6.20
2023-04-21T11:12:07.460Z,6.20
2023-04-21T11:15:14.398Z,6.60
2023-04-21T11:18:18.879Z,5.70
2023-04-21T11:24:28.594Z,5.75
2023-04-21T11:27:33.097Z,5.70
2023-04-21T11:30:37.848Z,5.95
2023-04-21T11:33:42.468Z,5.97
2023-04-21T11:36:48.220Z,5.90
2023-04-21T11:40:01.073Z,5.95
2023-04-21T11:43:06.359Z,6.57
2023-04-21T11:46:29.381Z,5.45
2023-04-21T11:49:46.426Z,6.28
2023-04-21T11:52:53.546Z,5.50
2023-04-21T11:55:58.344Z,5.75
2023-04-21T11:59:12.632Z,5.90
2023-04-21T12:02:31.415Z,5.85
2023-04-21T12:05:37.320Z,6.70
2023-04-21T12:08:42.085Z,6.07
2023-04-21T12:11:58.922Z,5.97
2023-04-21T12:15:05.220Z,6.05
2023-04-21T12:18:14.444Z,6.18
2023-04-21T12:21:19.104Z,5.18
2023-04-21T12:24:23.667Z,5.78
2023-04-21T12:27:28.440Z,6.07
2023-04-21T12:30:34.053Z,6.45
2023-04-21T12:33:41.034Z,5.82
2023-04-21T12:36:45.799Z,4.95
2023-04-21T12:39:49.973Z,6.00
2023-04-21T12:42:54.972Z,6.28
2023-04-21T12:45:59.927Z,5.38
2023-04-21T12:49:06.396Z,5.85
2023-04-21T12:52:10.759Z,5.93
2023-04-21T12:55:15.180Z,6.13
2023-04-21T12:58:19.915Z,5.57
2023-04-21T13:01:25.326Z,5.53
2023-04-21T13:04:29.997Z,5.85
2023-04-21T13:07:34.538Z,5.88
2023-04-21T13:10:38.727Z,5.55
2023-04-21T13:13:43.590Z,5.05
2023-04-21T13:16:48.298Z,5.20
2023-04-21T13:19:52.742Z,5.65
2023-04-21T13:22:59.015Z,5.25
2023-04-21T13:26:12.209Z,5.38
2023-04-21T13:29:17.017Z,5.10
2023-04-21T13:32:21.681Z,5.25
2023-04-21T13:35:26.424Z,5.10
2023-04-21T13:38:31.677Z,4.95
2023-04-21T13:41:35.966Z,5.25
2023-04-21T13:44:40.312Z,5.50
2023-04-21T13:47:44.751Z,4.85
2023-04-21T13:50:49.054Z,5.15
2023-04-21T13:53:53.431Z,5.30
2023-04-21T13:56:58.028Z,5.75
2023-04-21T14:00:02.403Z,5.40
2023-04-21T14:03:06.839Z,5.93
2023-04-21T14:06:11.291Z,5.53
2023-04-21T14:09:15.679Z,5.53
2023-04-21T14:12:20.200Z,5.53
2023-04-21T14:15:26.226Z,5.78
2023-04-21T14:18:30.812Z,5.75
2023-04-21T14:21:34.951Z,5.00
2023-04-21T14:24:40.461Z,5.05
2023-04-21T14:27:44.632Z,5.43
2023-04-21T14:30:48.985Z,6.75
2023-04-21T14:33:53.869Z,5.53
2023-04-21T14:36:59.044Z,5.85
2023-04-21T14:40:04.081Z,5.65
2023-04-21T14:43:11.348Z,6.45
2023-04-21T14:46:15.806Z,6.15
2023-04-21T14:49:21.322Z,5.55
2023-04-21T14:52:26.965Z,5.88
2023-04-21T14:55:31.598Z,5.53
2023-04-21T14:58:35.904Z,5.20
2023-04-21T15:01:40.425Z,5.68
2023-04-21T15:04:45.712Z,5.05
2023-04-21T15:07:50.188Z,5.40
2023-04-21T15:10:54.666Z,6.00
2023-04-21T15:13:59.004Z,6.10
2023-04-21T15:17:03.414Z,5.93
2023-04-21T15:20:10.111Z,6.13
2023-04-21T15:23:14.780Z,6.03
2023-04-21T15:26:19.703Z,6.30
2023-04-21T15:29:24.000Z,5.75
2023-04-21T15:32:28.385Z,6.00
2023-04-21T15:35:32.768Z,5.55
2023-04-21T15:38:36.986Z,6.60
2023-04-21T15:41:42.062Z,6.25
2023-04-21T15:44:47.081Z,5.50
2023-04-21T15:47:51.837Z,6.55
2023-04-21T15:50:56.687Z,5.95
2023-04-21T15:54:00.774Z,5.78
2023-04-21T15:57:05.672Z,5.50
2023-04-21T16:00:11.247Z,6.20
2023-04-21T16:03:16.124Z,5.88
2023-04-21T16:06:21.415Z,5.05
2023-04-21T16:09:26.467Z,6.00
2023-04-21T16:12:30.898Z,5.90
2023-04-21T16:15:35.490Z,5.07
2023-04-21T16:18:39.735Z,4.80
2023-04-21T16:21:44.269Z,5.10
2023-04-21T16:24:49.818Z,5.40
2023-04-21T16:27:54.603Z,5.60
2023-04-21T16:30:59.150Z,5.72
2023-04-21T16:34:03.231Z,6.13
2023-04-21T16:37:08.083Z,6.15
2023-04-21T16:40:12.751Z,6.28
2023-04-21T16:43:17.124Z,5.65
2023-04-21T16:46:22.471Z,6.20
2023-04-21T16:49:26.954Z,6.20
2023-04-21T16:52:31.971Z,6.28
2023-04-21T16:55:36.297Z,6.00
2023-04-21T16:58:41.105Z,5.78
2023-04-21T17:01:45.766Z,6.90
2023-04-21T17:04:50.189Z,6.03
2023-04-21T17:07:54.449Z,6.18
2023-04-21T17:11:00.064Z,5.57
2023-04-21T17:14:05.794Z,6.00
2023-04-21T17:17:10.358Z,5.65
2023-04-21T17:20:14.818Z,5.70
2023-04-21T17:23:19.093Z,6.13
2023-04-21T17:26:23.949Z,5.85
2023-04-21T17:29:28.487Z,5.60
2023-04-21T17:32:34.339Z,5.22
2023-04-21T17:35:43.688Z,5.78
2023-04-21T17:38:54.641Z,5.28
2023-04-21T17:41:59.281Z,6.18
2023-04-21T17:45:07.460Z,5.30
2023-04-21T17:48:12.354Z,6.15
2023-04-21T17:51:19.210Z,6.18
2023-04-21T17:54:23.983Z,5.38
2023-04-21T17:57:28.201Z,6.20
2023-04-21T18:00:34.375Z,6.07
2023-04-21T18:03:42.264Z,6.43
2023-04-21T18:06:47.346Z,6.93
2023-04-21T18:09:52.396Z,6.40
2023-04-21T18:12:56.980Z,7.00
2023-04-21T18:16:01.966Z,6.47
2023-04-21T18:19:06.676Z,6.88
2023-04-21T18:22:11.110Z,6.78
2023-04-21T18:25:17.374Z,7.30
2023-04-21T18:28:24.833Z,7.10
2023-04-21T18:31:29.878Z,7.65
2023-04-21T18:34:34.297Z,7.05
2023-04-21T18:37:38.624Z,7.82
2023-04-21T18:40:43.162Z,8.15
2023-04-21T18:43:47.428Z,7.32
2023-04-21T18:53:00.812Z,7.45
2023-04-21T18:56:06.073Z,7.03
2023-04-21T18:59:10.336Z,6.85
2023-04-21T19:05:20.553Z,7.22
2023-04-21T19:08:40.770Z,7.15
2023-04-21T19:11:47.097Z,6.32
2023-04-21T19:14:52.122Z,6.78
2023-04-21T19:17:56.989Z,6.00
2023-04-21T19:21:01.643Z,6.10
2023-04-21T19:24:06.381Z,5.90
2023-04-21T19:27:10.913Z,6.93
2023-04-21T19:30:16.044Z,5.75
2023-04-21T19:33:20.539Z,5.93
2023-04-21T19:36:24.812Z,5.63
2023-04-21T19:39:29.197Z,5.60
2023-04-21T19:42:33.434Z,5.13
2023-04-21T19:45:38.122Z,4.80
2023-04-21T19:48:42.926Z,6.05
2023-04-21T19:51:47.732Z,5.88
2023-04-21T19:54:51.900Z,5.40
2023-04-21T20:01:03.732Z,5.30
2023-04-21T20:04:10.920Z,4.97
2023-04-21T20:07:17.152Z,4.72
2023-04-21T20:10:22.038Z,4.82
2023-04-21T20:13:26.660Z,5.18
2023-04-21T20:16:31.938Z,5.05
2023-04-21T20:19:40.354Z,5.00
2023-04-21T20:22:45.306Z,4.80
2023-04-21T20:25:49.509Z,4.40
2023-04-21T20:28:53.997Z,5.13
2023-04-21T20:31:58.586Z,4.90
2023-04-21T20:35:03.300Z,4.90
2023-04-21T20:41:15.198Z,4.95
2023-04-21T20:44:22.631Z,4.40
2023-04-21T20:47:26.996Z,5.22
2023-04-21T20:50:31.136Z,4.43
2023-04-21T20:53:35.813Z,4.10
2023-04-21T20:56:40.228Z,4.40
2023-04-21T21:02:48.717Z,4.35
2023-04-21T21:05:53.473Z,3.60
2023-04-21T21:08:58.191Z,3.80
2023-04-21T21:12:02.869Z,3.65
2023-04-21T21:15:08.000Z,3.65
2023-04-21T21:18:12.042Z,4.22
2023-04-21T21:21:16.551Z,3.90
2023-04-21T21:24:21.026Z,3.70
2023-04-21T21:27:25.340Z,4.05
2023-04-21T21:30:29.992Z,3.42
2023-04-21T21:33:34.419Z,3.95
2023-04-21T21:36:38.970Z,3.80
2023-04-21T21:39:43.173Z,3.45
2023-04-21T21:42:47.550Z,3.83
2023-04-21T21:45:51.831Z,3.95
2023-04-21T21:48:56.101Z,4.32
2023-04-21T21:52:00.517Z,3.22
2023-04-21T21:55:06.244Z,4.10
2023-04-21T21:58:10.907Z,3.70
2023-04-21T22:01:17.986Z,3.63
2023-04-21T22:04:22.833Z,3.20
2023-04-21T22:07:27.142Z,3.53
2023-04-21T22:10:31.205Z,3.50
2023-04-21T22:13:36.041Z,3.78
2023-04-21T22:16:42.909Z,3.42
2023-04-21T22:19:47.511Z,3.15
2023-04-21T22:22:53.397Z,3.72
2023-04-21T22:25:58.150Z,3.10
2023-04-21T22:29:04.262Z,3.50
2023-04-21T22:32:09.328Z,3.30
2023-04-21T22:35:13.660Z,3.75
2023-04-21T22:38:18.020Z,3.45
2023-04-21T22:41:22.483Z,3.30
2023-04-21T22:44:26.891Z,3.58
2023-04-21T22:47:33.373Z,3.55
2023-04-21T22:50:38.085Z,3.40
2023-04-21T22:53:42.367Z,3.55
2023-04-21T22:56:47.023Z,3.95
2023-04-21T22:59:52.192Z,3.78
2023-04-21T23:02:56.792Z,3.95
2023-04-21T23:06:01.307Z,3.78
2023-04-21T23:09:05.631Z,3.90
2023-04-21T23:12:09.860Z,4.10
2023-04-21T23:15:14.388Z,4.30
2023-04-21T23:18:18.671Z,4.35
2023-04-21T23:21:22.800Z,4.32
2023-04-21T23:30:35.996Z,3.42
2023-04-21T23:33:40.348Z,3.42
2023-04-21T23:39:48.575Z,3.65
2023-04-21T23:42:53.099Z,3.92
2023-04-21T23:45:57.680Z,3.25
2023-04-21T23:49:02.127Z,3.58
2023-04-21T23:52:06.839Z,3.50
2023-04-21T23:55:14.123Z,4.25
2023-04-21T23:58:18.364Z,3.47
